sensor_id;sensor_type;location;lat;lon;timestamp;pressure;altitude;pressure_sealevel;temperature;humidity
11880;BME280;5999;43.256;27.816;2022-07-21T00:01:21;100110.63;;;22.12;92.29
11880;BME280;5999;43.256;27.816;2022-07-21T00:03:48;100105.75;;;21.98;92.77
11880;BME280;5999;43.256;27.816;2022-07-21T00:06:15;100108.63;;;22.14;92.15
11880;BME280;5999;43.256;27.816;2022-07-21T00:08:42;100107.66;;;22.15;92.01
11880;BME280;5999;43.256;27.816;2022-07-21T00:11:09;100099.91;;;22.12;92.46
11880;BME280;5999;43.256;27.816;2022-07-21T00:13:36;100102.88;;;22.09;93.12
11880;BME280;5999;43.256;27.816;2022-07-21T00:16:03;100096.41;;;22.02;92.66
11880;BME280;5999;43.256;27.816;2022-07-21T00:18:31;100088.97;;;21.96;92.85
11880;BME280;5999;43.256;27.816;2022-07-21T00:20:58;100087.66;;;22.00;93.58
11880;BME280;5999;43.256;27.816;2022-07-21T00:23:25;100087.66;;;22.00;94.72
11880;BME280;5999;43.256;27.816;2022-07-21T00:25:53;100087.97;;;21.97;96.58
11880;BME280;5999;43.256;27.816;2022-07-21T00:28:20;100076.56;;;21.95;96.85
11880;BME280;5999;43.256;27.816;2022-07-21T00:30:47;100072.50;;;21.91;97.90
11880;BME280;5999;43.256;27.816;2022-07-21T00:33:14;100081.25;;;21.83;99.01
11880;BME280;5999;43.256;27.816;2022-07-21T00:35:42;100066.31;;;21.80;98.76
11880;BME280;5999;43.256;27.816;2022-07-21T00:38:09;100076.47;;;21.77;99.57
11880;BME280;5999;43.256;27.816;2022-07-21T00:40:36;100070.88;;;21.70;98.83
11880;BME280;5999;43.256;27.816;2022-07-21T00:43:03;100066.94;;;21.64;97.66
11880;BME280;5999;43.256;27.816;2022-07-21T00:45:30;100060.75;;;21.64;98.15
11880;BME280;5999;43.256;27.816;2022-07-21T00:47:57;100060.56;;;21.65;98.35
11880;BME280;5999;43.256;27.816;2022-07-21T00:50:24;100064.13;;;21.66;98.67
11880;BME280;5999;43.256;27.816;2022-07-21T00:52:52;100059.88;;;21.63;99.42
11880;BME280;5999;43.256;27.816;2022-07-21T00:55:20;100055.38;;;21.64;99.90
11880;BME280;5999;43.256;27.816;2022-07-21T00:57:49;100052.41;;;21.57;99.89
11880;BME280;5999;43.256;27.816;2022-07-21T01:00:18;100053.69;;;21.53;99.62
11880;BME280;5999;43.256;27.816;2022-07-21T01:02:45;100043.88;;;21.44;99.64
11880;BME280;5999;43.256;27.816;2022-07-21T01:05:13;100048.09;;;21.27;99.90
11880;BME280;5999;43.256;27.816;2022-07-21T01:07:41;100050.03;;;21.35;100.00
11880;BME280;5999;43.256;27.816;2022-07-21T01:10:10;100042.88;;;21.35;100.00
11880;BME280;5999;43.256;27.816;2022-07-21T01:12:37;100042.19;;;21.33;100.00
11880;BME280;5999;43.256;27.816;2022-07-21T01:15:04;100045.56;;;21.35;100.00
11880;BME280;5999;43.256;27.816;2022-07-21T01:17:32;100047.09;;;21.38;100.00
11880;BME280;5999;43.256;27.816;2022-07-21T01:20:03;100037.66;;;21.24;100.00
11880;BME280;5999;43.256;27.816;2022-07-21T01:22:31;100039.38;;;21.05;100.00
11880;BME280;5999;43.256;27.816;2022-07-21T01:24:59;100043.91;;;21.15;100.00
11880;BME280;5999;43.256;27.816;2022-07-21T01:27:26;100036.84;;;21.23;100.00
11880;BME280;5999;43.256;27.816;2022-07-21T01:29:54;100030.34;;;21.16;100.00
11880;BME280;5999;43.256;27.816;2022-07-21T01:32:21;100031.09;;;21.09;100.00
11880;BME280;5999;43.256;27.816;2022-07-21T01:34:48;100026.41;;;21.20;100.00
11880;BME280;5999;43.256;27.816;2022-07-21T01:37:15;100035.41;;;21.29;100.00
11880;BME280;5999;43.256;27.816;2022-07-21T01:39:42;100026.38;;;21.30;100.00
11880;BME280;5999;43.256;27.816;2022-07-21T01:42:27;100025.53;;;21.30;100.00
11880;BME280;5999;43.256;27.816;2022-07-21T01:44:53;100029.38;;;21.07;100.00
11880;BME280;5999;43.256;27.816;2022-07-21T01:47:23;100014.16;;;21.18;100.00
11880;BME280;5999;43.256;27.816;2022-07-21T01:49:50;100020.50;;;21.17;100.00
11880;BME280;5999;43.256;27.816;2022-07-21T01:52:17;100010.66;;;21.07;100.00
11880;BME280;5999;43.256;27.816;2022-07-21T01:54:44;100023.31;;;21.05;100.00
11880;BME280;5999;43.256;27.816;2022-07-21T01:57:11;100025.44;;;21.12;100.00
11880;BME280;5999;43.256;27.816;2022-07-21T01:59:38;100021.91;;;21.01;100.00
11880;BME280;5999;43.256;27.816;2022-07-21T02:02:05;100017.97;;;21.05;100.00
11880;BME280;5999;43.256;27.816;2022-07-21T02:04:32;100018.00;;;20.76;100.00
11880;BME280;5999;43.256;27.816;2022-07-21T02:07:00;100011.47;;;20.98;100.00
11880;BME280;5999;43.256;27.816;2022-07-21T02:09:28;100003.91;;;20.84;100.00
11880;BME280;5999;43.256;27.816;2022-07-21T02:11:56;100006.72;;;20.82;100.00
11880;BME280;5999;43.256;27.816;2022-07-21T02:14:22;100011.66;;;20.87;100.00
11880;BME280;5999;43.256;27.816;2022-07-21T02:16:49;100012.09;;;20.73;100.00
11880;BME280;5999;43.256;27.816;2022-07-21T02:19:16;100011.38;;;20.71;100.00
11880;BME280;5999;43.256;27.816;2022-07-21T02:21:43;99998.84;;;21.00;100.00
11880;BME280;5999;43.256;27.816;2022-07-21T02:24:10;99999.25;;;21.05;100.00
11880;BME280;5999;43.256;27.816;2022-07-21T02:26:37;100004.47;;;20.97;100.00
11880;BME280;5999;43.256;27.816;2022-07-21T02:29:04;100007.84;;;20.99;100.00
11880;BME280;5999;43.256;27.816;2022-07-21T02:31:31;99993.47;;;21.00;100.00
11880;BME280;5999;43.256;27.816;2022-07-21T02:33:58;99992.63;;;21.00;100.00
11880;BME280;5999;43.256;27.816;2022-07-21T02:36:25;100003.31;;;20.90;100.00
11880;BME280;5999;43.256;27.816;2022-07-21T02:38:52;99993.63;;;20.89;100.00
11880;BME280;5999;43.256;27.816;2022-07-21T02:41:19;99980.94;;;20.91;100.00
11880;BME280;5999;43.256;27.816;2022-07-21T02:43:46;99974.59;;;20.92;100.00
11880;BME280;5999;43.256;27.816;2022-07-21T02:46:13;99980.94;;;20.91;100.00
11880;BME280;5999;43.256;27.816;2022-07-21T02:48:40;99985.84;;;20.96;100.00
11880;BME280;5999;43.256;27.816;2022-07-21T02:51:07;99988.28;;;20.89;100.00
11880;BME280;5999;43.256;27.816;2022-07-21T02:53:34;99970.94;;;20.74;100.00
11880;BME280;5999;43.256;27.816;2022-07-21T02:56:01;99976.75;;;20.79;100.00
11880;BME280;5999;43.256;27.816;2022-07-21T02:58:28;99971.78;;;20.84;100.00
11880;BME280;5999;43.256;27.816;2022-07-21T03:00:57;99970.69;;;20.86;100.00
11880;BME280;5999;43.256;27.816;2022-07-21T03:03:27;99975.28;;;20.94;100.00
11880;BME280;5999;43.256;27.816;2022-07-21T03:05:58;99972.63;;;20.94;100.00
11880;BME280;5999;43.256;27.816;2022-07-21T03:08:27;99972.59;;;21.04;100.00
11880;BME280;5999;43.256;27.816;2022-07-21T03:10:54;99981.06;;;20.99;100.00
11880;BME280;5999;43.256;27.816;2022-07-21T03:13:21;99987.13;;;21.01;100.00
11880;BME280;5999;43.256;27.816;2022-07-21T03:15:48;99991.78;;;20.99;100.00
11880;BME280;5999;43.256;27.816;2022-07-21T03:18:16;99988.66;;;21.14;100.00
11880;BME280;5999;43.256;27.816;2022-07-21T03:20:44;99987.25;;;21.19;100.00
11880;BME280;5999;43.256;27.816;2022-07-21T03:23:12;99990.88;;;21.18;100.00
11880;BME280;5999;43.256;27.816;2022-07-21T03:25:39;99987.81;;;21.23;100.00
11880;BME280;5999;43.256;27.816;2022-07-21T03:28:06;99992.97;;;21.34;100.00
11880;BME280;5999;43.256;27.816;2022-07-21T03:30:33;99990.00;;;21.47;99.65
11880;BME280;5999;43.256;27.816;2022-07-21T03:33:01;99990.16;;;21.45;100.00
11880;BME280;5999;43.256;27.816;2022-07-21T03:35:28;99988.53;;;21.62;98.86
11880;BME280;5999;43.256;27.816;2022-07-21T03:37:57;99984.69;;;21.75;100.00
11880;BME280;5999;43.256;27.816;2022-07-21T03:40:26;99987.13;;;21.86;99.63
11880;BME280;5999;43.256;27.816;2022-07-21T03:42:54;99976.69;;;21.93;96.55
11880;BME280;5999;43.256;27.816;2022-07-21T03:45:22;99978.78;;;21.99;98.51
11880;BME280;5999;43.256;27.816;2022-07-21T03:47:49;99976.97;;;22.17;96.28
11880;BME280;5999;43.256;27.816;2022-07-21T03:50:16;99977.94;;;22.44;96.40
11880;BME280;5999;43.256;27.816;2022-07-21T03:52:44;99969.78;;;22.72;93.50
11880;BME280;5999;43.256;27.816;2022-07-21T03:55:12;99971.22;;;23.02;91.18
11880;BME280;5999;43.256;27.816;2022-07-21T03:57:42;99972.59;;;23.32;88.31
11880;BME280;5999;43.256;27.816;2022-07-21T04:00:12;99975.00;;;23.43;87.19
11880;BME280;5999;43.256;27.816;2022-07-21T04:02:40;99981.84;;;23.64;85.82
11880;BME280;5999;43.256;27.816;2022-07-21T04:05:09;99978.56;;;23.78;86.75
11880;BME280;5999;43.256;27.816;2022-07-21T04:07:38;99972.91;;;23.98;83.78
11880;BME280;5999;43.256;27.816;2022-07-21T04:10:06;99970.25;;;24.14;79.87
11880;BME280;5999;43.256;27.816;2022-07-21T04:12:33;99987.78;;;24.26;79.52
11880;BME280;5999;43.256;27.816;2022-07-21T04:15:00;99985.63;;;24.38;77.41
11880;BME280;5999;43.256;27.816;2022-07-21T04:17:27;99973.69;;;24.41;77.25
11880;BME280;5999;43.256;27.816;2022-07-21T04:19:54;99970.16;;;24.49;76.40
11880;BME280;5999;43.256;27.816;2022-07-21T04:22:21;99977.25;;;24.58;75.43
11880;BME280;5999;43.256;27.816;2022-07-21T04:24:47;99984.84;;;24.62;75.13
11880;BME280;5999;43.256;27.816;2022-07-21T04:27:14;99986.34;;;24.65;74.37
11880;BME280;5999;43.256;27.816;2022-07-21T04:29:42;99979.28;;;24.64;74.25
11880;BME280;5999;43.256;27.816;2022-07-21T04:32:09;99979.09;;;24.57;73.69
11880;BME280;5999;43.256;27.816;2022-07-21T04:34:36;99975.44;;;24.66;74.82
11880;BME280;5999;43.256;27.816;2022-07-21T04:37:02;99975.75;;;24.72;74.04
11880;BME280;5999;43.256;27.816;2022-07-21T04:39:29;99977.59;;;24.79;74.92
11880;BME280;5999;43.256;27.816;2022-07-21T04:41:56;99975.91;;;24.86;74.97
11880;BME280;5999;43.256;27.816;2022-07-21T04:44:23;99984.84;;;25.03;74.08
11880;BME280;5999;43.256;27.816;2022-07-21T04:46:51;99982.44;;;25.17;72.73
11880;BME280;5999;43.256;27.816;2022-07-21T04:49:18;99982.66;;;25.23;73.18
11880;BME280;5999;43.256;27.816;2022-07-21T04:51:45;99982.13;;;25.28;71.55
11880;BME280;5999;43.256;27.816;2022-07-21T04:54:12;99992.53;;;25.39;71.90
11880;BME280;5999;43.256;27.816;2022-07-21T04:56:40;99990.19;;;25.44;71.15
11880;BME280;5999;43.256;27.816;2022-07-21T04:59:07;99991.50;;;25.49;71.28
11880;BME280;5999;43.256;27.816;2022-07-21T05:01:34;99987.94;;;25.64;71.28
11880;BME280;5999;43.256;27.816;2022-07-21T05:04:02;99989.69;;;25.80;71.53
11880;BME280;5999;43.256;27.816;2022-07-21T05:06:29;99994.88;;;25.98;69.66
11880;BME280;5999;43.256;27.816;2022-07-21T05:08:56;100001.34;;;26.20;69.16
11880;BME280;5999;43.256;27.816;2022-07-21T05:11:23;100000.59;;;26.35;69.06
11880;BME280;5999;43.256;27.816;2022-07-21T05:13:50;100002.63;;;26.56;67.37
11880;BME280;5999;43.256;27.816;2022-07-21T05:16:17;99989.69;;;26.74;65.63
11880;BME280;5999;43.256;27.816;2022-07-21T05:18:44;100001.50;;;26.96;66.06
11880;BME280;5999;43.256;27.816;2022-07-21T05:21:13;99997.44;;;27.15;64.87
11880;BME280;5999;43.256;27.816;2022-07-21T05:23:40;100001.88;;;27.31;64.65
11880;BME280;5999;43.256;27.816;2022-07-21T05:26:07;99998.91;;;27.56;63.90
11880;BME280;5999;43.256;27.816;2022-07-21T05:28:34;100005.44;;;27.47;63.08
11880;BME280;5999;43.256;27.816;2022-07-21T05:31:01;100005.81;;;27.73;62.57
11880;BME280;5999;43.256;27.816;2022-07-21T05:33:27;100005.78;;;28.03;63.02
11880;BME280;5999;43.256;27.816;2022-07-21T05:35:54;100011.69;;;28.07;62.24
11880;BME280;5999;43.256;27.816;2022-07-21T05:38:22;100018.63;;;28.31;62.11
11880;BME280;5999;43.256;27.816;2022-07-21T05:40:49;100016.81;;;28.38;60.59
11880;BME280;5999;43.256;27.816;2022-07-21T05:43:16;100026.09;;;28.29;60.75
11880;BME280;5999;43.256;27.816;2022-07-21T05:45:42;100028.84;;;28.50;61.37
11880;BME280;5999;43.256;27.816;2022-07-21T05:48:09;100019.84;;;28.64;60.21
11880;BME280;5999;43.256;27.816;2022-07-21T05:50:36;100029.31;;;28.54;58.69
11880;BME280;5999;43.256;27.816;2022-07-21T05:53:03;100029.56;;;28.80;57.67
11880;BME280;5999;43.256;27.816;2022-07-21T05:55:31;100035.31;;;28.92;56.99
11880;BME280;5999;43.256;27.816;2022-07-21T05:57:57;100034.56;;;29.20;56.30
11880;BME280;5999;43.256;27.816;2022-07-21T06:00:24;100034.63;;;29.33;55.60
11880;BME280;5999;43.256;27.816;2022-07-21T06:02:51;100025.03;;;29.65;53.96
11880;BME280;5999;43.256;27.816;2022-07-21T06:05:18;100035.63;;;29.89;53.15
11880;BME280;5999;43.256;27.816;2022-07-21T06:07:46;100033.63;;;30.04;52.92
11880;BME280;5999;43.256;27.816;2022-07-21T06:10:14;100038.06;;;30.18;51.22
11880;BME280;5999;43.256;27.816;2022-07-21T06:12:42;100035.75;;;30.15;51.92
11880;BME280;5999;43.256;27.816;2022-07-21T06:15:10;100026.72;;;30.63;51.22
11880;BME280;5999;43.256;27.816;2022-07-21T06:17:41;100026.31;;;30.66;50.66
11880;BME280;5999;43.256;27.816;2022-07-21T06:20:09;100030.91;;;30.66;49.25
11880;BME280;5999;43.256;27.816;2022-07-21T06:22:37;100028.66;;;30.89;50.12
11880;BME280;5999;43.256;27.816;2022-07-21T06:25:05;100022.75;;;30.79;48.05
11880;BME280;5999;43.256;27.816;2022-07-21T06:27:32;100021.97;;;30.92;48.45
11880;BME280;5999;43.256;27.816;2022-07-21T06:30:00;100027.41;;;30.98;47.51
11880;BME280;5999;43.256;27.816;2022-07-21T06:32:26;100033.69;;;31.06;47.51
11880;BME280;5999;43.256;27.816;2022-07-21T06:34:53;100037.03;;;31.41;46.75
11880;BME280;5999;43.256;27.816;2022-07-21T06:37:20;100030.28;;;31.70;47.94
11880;BME280;5999;43.256;27.816;2022-07-21T06:39:48;100035.25;;;31.87;48.18
11880;BME280;5999;43.256;27.816;2022-07-21T06:42:15;100034.31;;;32.19;46.06
11880;BME280;5999;43.256;27.816;2022-07-21T06:44:42;100036.38;;;32.24;46.39
11880;BME280;5999;43.256;27.816;2022-07-21T06:47:09;100025.34;;;32.57;44.78
11880;BME280;5999;43.256;27.816;2022-07-21T06:49:36;100031.44;;;32.08;45.58
11880;BME280;5999;43.256;27.816;2022-07-21T06:52:03;100033.06;;;32.15;46.00
11880;BME280;5999;43.256;27.816;2022-07-21T06:54:30;100026.34;;;32.25;46.51
11880;BME280;5999;43.256;27.816;2022-07-21T06:56:57;100033.75;;;32.49;45.07
11880;BME280;5999;43.256;27.816;2022-07-21T06:59:24;100029.19;;;32.36;44.30
11880;BME280;5999;43.256;27.816;2022-07-21T07:01:51;100030.78;;;32.51;45.49
11880;BME280;5999;43.256;27.816;2022-07-21T07:04:19;100032.53;;;32.45;43.72
11880;BME280;5999;43.256;27.816;2022-07-21T07:30:04;100024.13;;;34.09;40.45
11880;BME280;5999;43.256;27.816;2022-07-21T07:32:31;100014.97;;;33.67;39.74
11880;BME280;5999;43.256;27.816;2022-07-21T07:34:58;100023.34;;;33.47;39.31
11880;BME280;5999;43.256;27.816;2022-07-21T07:37:25;100030.06;;;33.69;39.34
11880;BME280;5999;43.256;27.816;2022-07-21T07:39:52;100032.66;;;33.82;38.76
11880;BME280;5999;43.256;27.816;2022-07-21T07:42:19;100021.66;;;33.89;38.90
11880;BME280;5999;43.256;27.816;2022-07-21T07:44:46;100029.53;;;33.79;39.86
11880;BME280;5999;43.256;27.816;2022-07-21T07:47:14;100025.75;;;33.98;39.26
11880;BME280;5999;43.256;27.816;2022-07-21T07:49:41;100020.94;;;34.12;39.19
11880;BME280;5999;43.256;27.816;2022-07-21T07:52:08;100023.25;;;34.15;39.84
11880;BME280;5999;43.256;27.816;2022-07-21T07:54:36;100024.75;;;34.11;39.79
11880;BME280;5999;43.256;27.816;2022-07-21T07:57:03;100020.06;;;33.81;39.42
11880;BME280;5999;43.256;27.816;2022-07-21T07:59:30;100022.56;;;34.50;42.33
11880;BME280;5999;43.256;27.816;2022-07-21T08:01:57;100030.88;;;34.74;39.92
11880;BME280;5999;43.256;27.816;2022-07-21T08:04:25;100027.31;;;34.43;39.54
11880;BME280;5999;43.256;27.816;2022-07-21T08:06:51;100019.34;;;34.72;39.20
11880;BME280;5999;43.256;27.816;2022-07-21T08:09:18;100020.00;;;35.33;38.56
11880;BME280;5999;43.256;27.816;2022-07-21T08:11:45;100010.69;;;34.56;38.88
11880;BME280;5999;43.256;27.816;2022-07-21T08:14:13;100018.03;;;34.98;38.66
11880;BME280;5999;43.256;27.816;2022-07-21T08:16:40;100012.50;;;35.28;39.10
11880;BME280;5999;43.256;27.816;2022-07-21T08:52:26;100030.00;;;35.74;37.15
11880;BME280;5999;43.256;27.816;2022-07-21T08:54:53;100028.41;;;35.08;37.04
11880;BME280;5999;43.256;27.816;2022-07-21T08:57:22;100029.88;;;35.46;37.09
11880;BME280;5999;43.256;27.816;2022-07-21T08:59:49;100033.41;;;35.81;36.57
11880;BME280;5999;43.256;27.816;2022-07-21T09:02:31;100036.78;;;35.60;37.03
11880;BME280;5999;43.256;27.816;2022-07-21T09:05:00;100029.75;;;35.76;36.17
11880;BME280;5999;43.256;27.816;2022-07-21T09:07:28;100027.75;;;36.12;36.10
11880;BME280;5999;43.256;27.816;2022-07-21T09:09:56;100019.31;;;36.42;36.03
11880;BME280;5999;43.256;27.816;2022-07-21T09:12:23;100024.63;;;36.20;35.96
11880;BME280;5999;43.256;27.816;2022-07-21T09:14:50;100032.94;;;35.96;36.05
11880;BME280;5999;43.256;27.816;2022-07-21T09:17:18;100024.28;;;36.45;36.77
11880;BME280;5999;43.256;27.816;2022-07-21T09:19:46;100030.66;;;36.63;36.21
11880;BME280;5999;43.256;27.816;2022-07-21T09:22:16;100024.09;;;36.64;36.73
11880;BME280;5999;43.256;27.816;2022-07-21T09:24:49;100028.97;;;37.24;36.46
11880;BME280;5999;43.256;27.816;2022-07-21T09:27:17;100037.88;;;37.53;35.56
11880;BME280;5999;43.256;27.816;2022-07-21T09:29:46;100028.34;;;37.78;34.27
11880;BME280;5999;43.256;27.816;2022-07-21T09:32:25;100034.63;;;37.95;33.95
11880;BME280;5999;43.256;27.816;2022-07-21T09:34:54;100032.34;;;37.87;33.76
11880;BME280;5999;43.256;27.816;2022-07-21T09:37:22;100042.25;;;38.10;34.30
11880;BME280;5999;43.256;27.816;2022-07-21T09:39:52;100036.81;;;38.37;33.65
11880;BME280;5999;43.256;27.816;2022-07-21T09:42:24;100035.03;;;38.53;34.24
11880;BME280;5999;43.256;27.816;2022-07-21T09:44:58;100031.78;;;38.56;33.18
11880;BME280;5999;43.256;27.816;2022-07-21T09:47:28;100031.56;;;38.63;32.51
11880;BME280;5999;43.256;27.816;2022-07-21T09:49:56;100032.13;;;38.38;32.54
11880;BME280;5999;43.256;27.816;2022-07-21T09:52:26;100037.63;;;38.65;34.19
11880;BME280;5999;43.256;27.816;2022-07-21T09:54:57;100035.56;;;39.10;32.00
11880;BME280;5999;43.256;27.816;2022-07-21T09:57:25;100029.00;;;38.84;33.19
11880;BME280;5999;43.256;27.816;2022-07-21T09:59:52;100036.50;;;38.12;32.77
11880;BME280;5999;43.256;27.816;2022-07-21T10:02:21;100046.34;;;38.30;33.35
11880;BME280;5999;43.256;27.816;2022-07-21T10:04:56;100047.00;;;38.15;32.25
11880;BME280;5999;43.256;27.816;2022-07-21T10:07:23;100034.91;;;38.97;32.66
11880;BME280;5999;43.256;27.816;2022-07-21T10:09:51;100042.94;;;38.99;32.25
11880;BME280;5999;43.256;27.816;2022-07-21T10:12:18;100050.50;;;38.87;32.70
11880;BME280;5999;43.256;27.816;2022-07-21T10:14:46;100037.25;;;38.29;31.85
11880;BME280;5999;43.256;27.816;2022-07-21T10:17:13;100041.50;;;39.76;33.10
11880;BME280;5999;43.256;27.816;2022-07-21T10:19:45;100045.16;;;39.92;29.78
11880;BME280;5999;43.256;27.816;2022-07-21T10:22:23;100046.06;;;40.03;30.84
11880;BME280;5999;43.256;27.816;2022-07-21T10:24:52;100050.09;;;38.73;31.23
11880;BME280;5999;43.256;27.816;2022-07-21T10:27:20;100049.31;;;38.77;30.57
11880;BME280;5999;43.256;27.816;2022-07-21T10:29:59;100055.03;;;33.91;36.05
11880;BME280;5999;43.256;27.816;2022-07-21T10:32:30;100061.53;;;33.53;45.79
11880;BME280;5999;43.256;27.816;2022-07-21T10:34:58;100064.66;;;33.94;54.79
11880;BME280;5999;43.256;27.816;2022-07-21T10:37:45;100052.59;;;33.21;62.67
11880;BME280;5999;43.256;27.816;2022-07-21T10:40:36;100050.19;;;30.22;86.42
11880;BME280;5999;43.256;27.816;2022-07-21T10:43:41;100045.00;;;29.23;96.38
11880;BME280;5999;43.256;27.816;2022-07-21T10:46:34;100049.91;;;28.91;100.00
11880;BME280;5999;43.256;27.816;2022-07-21T10:49:06;100040.47;;;29.09;100.00
11880;BME280;5999;43.256;27.816;2022-07-21T10:51:36;100032.06;;;29.25;97.66
11880;BME280;5999;43.256;27.816;2022-07-21T10:54:21;100039.09;;;29.41;96.59
11880;BME280;5999;43.256;27.816;2022-07-21T11:00:16;100046.19;;;29.14;98.25
11880;BME280;5999;43.256;27.816;2022-07-21T11:02:46;100038.25;;;29.12;100.00
11880;BME280;5999;43.256;27.816;2022-07-21T11:05:13;100047.78;;;29.08;100.00
11880;BME280;5999;43.256;27.816;2022-07-21T11:08:12;100042.78;;;28.69;100.00
11880;BME280;5999;43.256;27.816;2022-07-21T11:10:41;100038.94;;;28.99;100.00
11880;BME280;5999;43.256;27.816;2022-07-21T11:13:10;100055.66;;;28.45;100.00
11880;BME280;5999;43.256;27.816;2022-07-21T11:15:48;100052.47;;;28.41;100.00
11880;BME280;5999;43.256;27.816;2022-07-21T11:18:21;100049.97;;;28.40;100.00
11880;BME280;5999;43.256;27.816;2022-07-21T11:21:07;100048.97;;;28.62;99.58
11880;BME280;5999;43.256;27.816;2022-07-21T11:23:36;100051.25;;;28.44;97.93
11880;BME280;5999;43.256;27.816;2022-07-21T11:26:04;100053.53;;;28.40;100.00
11880;BME280;5999;43.256;27.816;2022-07-21T11:28:31;100050.78;;;28.04;100.00
11880;BME280;5999;43.256;27.816;2022-07-21T11:31:11;100063.47;;;27.59;100.00
11880;BME280;5999;43.256;27.816;2022-07-21T11:33:39;100052.72;;;27.65;100.00
11880;BME280;5999;43.256;27.816;2022-07-21T11:36:06;100067.50;;;28.08;100.00
11880;BME280;5999;43.256;27.816;2022-07-21T11:38:33;100069.09;;;27.87;99.25
11880;BME280;5999;43.256;27.816;2022-07-21T11:41:14;100078.59;;;27.98;100.00
11880;BME280;5999;43.256;27.816;2022-07-21T11:43:42;100070.31;;;28.36;100.00
11880;BME280;5999;43.256;27.816;2022-07-21T11:46:10;100067.13;;;28.47;100.00
11880;BME280;5999;43.256;27.816;2022-07-21T11:48:37;100072.84;;;28.52;100.00
11880;BME280;5999;43.256;27.816;2022-07-21T11:51:04;100069.56;;;28.78;100.00
11880;BME280;5999;43.256;27.816;2022-07-21T11:53:33;100081.69;;;28.10;100.00
11880;BME280;5999;43.256;27.816;2022-07-21T11:56:00;100078.91;;;28.54;99.38
11880;BME280;5999;43.256;27.816;2022-07-21T11:58:27;100051.59;;;29.14;99.38
11880;BME280;5999;43.256;27.816;2022-07-21T12:01:05;100078.81;;;28.84;99.37
11880;BME280;5999;43.256;27.816;2022-07-21T12:03:33;100073.50;;;29.12;100.00
11880;BME280;5999;43.256;27.816;2022-07-21T12:06:00;100067.47;;;29.17;99.63
11880;BME280;5999;43.256;27.816;2022-07-21T12:08:28;100060.09;;;29.32;97.84
11880;BME280;5999;43.256;27.816;2022-07-21T12:11:05;100065.03;;;29.22;100.00
11880;BME280;5999;43.256;27.816;2022-07-21T12:13:51;100074.75;;;28.95;100.00
11880;BME280;5999;43.256;27.816;2022-07-21T12:16:48;100079.66;;;28.84;100.00
11880;BME280;5999;43.256;27.816;2022-07-21T12:19:17;100066.28;;;29.04;97.96
11880;BME280;5999;43.256;27.816;2022-07-21T12:21:46;100071.03;;;29.45;100.00
11880;BME280;5999;43.256;27.816;2022-07-21T12:24:13;100073.25;;;29.35;99.25
11880;BME280;5999;43.256;27.816;2022-07-21T12:26:40;100073.78;;;28.30;100.00
11880;BME280;5999;43.256;27.816;2022-07-21T12:29:07;100071.72;;;28.47;100.00
11880;BME280;5999;43.256;27.816;2022-07-21T12:31:35;100081.56;;;28.03;100.00
11880;BME280;5999;43.256;27.816;2022-07-21T12:34:12;100091.06;;;27.69;100.00
11880;BME280;5999;43.256;27.816;2022-07-21T12:36:41;100088.28;;;28.07;100.00
11880;BME280;5999;43.256;27.816;2022-07-21T12:39:20;100081.75;;;28.16;100.00
11880;BME280;5999;43.256;27.816;2022-07-21T12:42:09;100084.47;;;28.16;100.00
11880;BME280;5999;43.256;27.816;2022-07-21T12:44:38;100086.09;;;28.62;100.00
11880;BME280;5999;43.256;27.816;2022-07-21T12:47:15;100078.56;;;29.00;100.00
11880;BME280;5999;43.256;27.816;2022-07-21T12:50:00;100074.41;;;29.04;100.00
11880;BME280;5999;43.256;27.816;2022-07-21T12:52:28;100081.41;;;28.04;100.00
11880;BME280;5999;43.256;27.816;2022-07-21T12:54:56;100063.19;;;27.69;100.00
11880;BME280;5999;43.256;27.816;2022-07-21T12:57:26;100074.31;;;27.36;100.00
11880;BME280;5999;43.256;27.816;2022-07-21T12:59:54;100067.47;;;27.63;100.00
11880;BME280;5999;43.256;27.816;2022-07-21T13:02:21;100063.84;;;28.15;100.00
11880;BME280;5999;43.256;27.816;2022-07-21T13:04:48;100063.94;;;27.92;100.00
11880;BME280;5999;43.256;27.816;2022-07-21T13:07:16;100062.72;;;27.95;100.00
11880;BME280;5999;43.256;27.816;2022-07-21T13:09:43;100072.41;;;27.74;100.00
11880;BME280;5999;43.256;27.816;2022-07-21T13:12:11;100070.19;;;27.93;100.00
11880;BME280;5999;43.256;27.816;2022-07-21T13:14:39;100077.38;;;27.85;100.00
11880;BME280;5999;43.256;27.816;2022-07-21T13:17:06;100072.69;;;27.79;100.00
11880;BME280;5999;43.256;27.816;2022-07-21T13:19:34;100086.00;;;27.89;100.00
11880;BME280;5999;43.256;27.816;2022-07-21T13:22:03;100079.25;;;27.85;100.00
11880;BME280;5999;43.256;27.816;2022-07-21T13:24:31;100084.09;;;28.19;100.00
11880;BME280;5999;43.256;27.816;2022-07-21T13:26:58;100082.25;;;27.37;100.00
11880;BME280;5999;43.256;27.816;2022-07-21T13:29:25;100080.53;;;27.74;100.00
11880;BME280;5999;43.256;27.816;2022-07-21T13:31:52;100085.97;;;28.04;100.00
11880;BME280;5999;43.256;27.816;2022-07-21T13:34:19;100086.88;;;28.77;100.00
11880;BME280;5999;43.256;27.816;2022-07-21T13:36:46;100075.41;;;28.24;100.00
11880;BME280;5999;43.256;27.816;2022-07-21T13:39:13;100082.13;;;28.13;100.00
11880;BME280;5999;43.256;27.816;2022-07-21T13:41:40;100077.59;;;28.87;100.00
11880;BME280;5999;43.256;27.816;2022-07-21T13:44:08;100075.91;;;28.49;100.00
11880;BME280;5999;43.256;27.816;2022-07-21T13:46:35;100074.31;;;27.89;100.00
11880;BME280;5999;43.256;27.816;2022-07-21T13:49:01;100072.25;;;27.91;100.00
11880;BME280;5999;43.256;27.816;2022-07-21T13:51:28;100082.72;;;27.94;100.00
11880;BME280;5999;43.256;27.816;2022-07-21T13:53:55;100084.50;;;28.38;100.00
11880;BME280;5999;43.256;27.816;2022-07-21T13:56:22;100090.16;;;28.94;100.00